createdAt,value
2022-08-12T00:02:03.060Z,101645.03
2022-08-12T00:06:25.290Z,101650.66
2022-08-12T00:10:45.501Z,101647.84
2022-08-12T00:15:05.915Z,101644.63
2022-08-12T00:19:25.773Z,101656.69
2022-08-12T00:23:45.467Z,101649.47
2022-08-12T00:28:06.313Z,101647.44
2022-08-12T00:32:36.186Z,101647.03
2022-08-12T00:37:02.709Z,101649.88
2022-08-12T00:41:34.714Z,101644.63
2022-08-12T00:45:56.154Z,101647.06
2022-08-12T00:49:58.582Z,101651.91
2022-08-12T00:54:00.093Z,101649.06
2022-08-12T00:58:06.022Z,101650.31
2022-08-12T01:02:11.592Z,101651.88
2022-08-12T01:06:36.669Z,101649.06
2022-08-12T01:10:58.914Z,101643.84
2022-08-12T01:15:01.670Z,101651.09
2022-08-12T01:19:03.663Z,101651.09
2022-08-12T01:23:18.029Z,101653.94
2022-08-12T01:27:22.328Z,101652.25
2022-08-12T01:31:23.833Z,101646.25
2022-08-12T01:35:27.188Z,101647.84
2022-08-12T01:40:33.192Z,101649.41
2022-08-12T01:44:04.541Z,101647.03
2022-08-12T01:48:25.488Z,101647.88
2022-08-12T01:52:48.657Z,101645.84
2022-08-12T01:56:55.940Z,101651.03
2022-08-12T02:01:04.516Z,101653.84
2022-08-12T02:06:00.719Z,101640.50
2022-08-12T02:10:50.379Z,101653.38
2022-08-12T02:15:07.076Z,101635.31
2022-08-12T02:19:30.555Z,101636.50
2022-08-12T02:23:34.657Z,101638.53
2022-08-12T02:27:54.072Z,101641.28
2022-08-12T02:31:57.334Z,101641.09
2022-08-12T02:36:02.358Z,101624.75
2022-08-12T02:40:04.753Z,101639.84
2022-08-12T02:44:15.113Z,101636.22
2022-08-12T02:48:33.976Z,101632.38
2022-08-12T02:52:36.978Z,101633.19
2022-08-12T02:56:41.551Z,101633.03
2022-08-12T03:00:44.255Z,101624.69
2022-08-12T03:04:56.597Z,101631.97
2022-08-12T03:08:59.811Z,101634.78
2022-08-12T03:13:04.128Z,101636.00
2022-08-12T03:17:27.912Z,101640.00
2022-08-12T03:21:57.892Z,101637.63
2022-08-12T03:25:55.537Z,101642.91
2022-08-12T03:29:57.871Z,101642.94
2022-08-12T03:34:04.445Z,101639.09
2022-08-12T03:38:08.864Z,101643.94
2022-08-12T03:42:40.656Z,101645.31
2022-08-12T03:47:03.936Z,101648.81
2022-08-12T03:51:24.168Z,101648.44
2022-08-12T03:55:43.925Z,101655.78
2022-08-12T04:00:03.855Z,101656.97
2022-08-12T04:04:05.719Z,101652.16
2022-08-12T04:08:11.348Z,101649.03
2022-08-12T04:12:33.264Z,101660.28
2022-08-12T04:16:35.599Z,101659.34
2022-08-12T04:20:37.285Z,101657.16
2022-08-12T04:24:40.931Z,101664.44
2022-08-12T04:28:43.196Z,101665.00
2022-08-12T04:32:46.120Z,101664.09
2022-08-12T04:36:48.548Z,101662.94
2022-08-12T04:40:50.108Z,101666.53
2022-08-12T04:44:51.843Z,101662.56
2022-08-12T04:48:54.689Z,101663.38
2022-08-12T04:52:56.545Z,101670.19
2022-08-12T04:57:04.069Z,101666.88
2022-08-12T05:01:12.628Z,101665.50
2022-08-12T05:05:24.664Z,101660.84
2022-08-12T05:09:26.105Z,101670.59
2022-08-12T05:13:47.532Z,101668.38
2022-08-12T05:17:49.191Z,101676.81
2022-08-12T05:21:50.935Z,101670.78
2022-08-12T05:25:56.455Z,101674.91
2022-08-12T05:30:05.568Z,101672.19
2022-08-12T05:34:14.665Z,101672.38
2022-08-12T05:38:37.323Z,101681.25
2022-08-12T05:42:39.119Z,101679.25
2022-08-12T05:46:41.245Z,101680.84
2022-08-12T05:50:45.280Z,101684.88
2022-08-12T05:54:57.205Z,101684.06
2022-08-12T05:59:01.333Z,101686.47
2022-08-12T06:03:04.756Z,101697.31
2022-08-12T06:07:37.265Z,101689.28
2022-08-12T06:11:30.229Z,101693.66
2022-08-12T06:15:35.711Z,101700.03
2022-08-12T06:20:28.687Z,101690.31
2022-08-12T06:23:58.628Z,101699.91
2022-08-12T06:28:07.590Z,101698.63
2022-08-12T06:32:09.810Z,101703.72
2022-08-12T06:36:14.083Z,101697.94
2022-08-12T06:40:41.233Z,101691.34
2022-08-12T06:44:42.741Z,101695.13
2022-08-12T06:48:44.283Z,101698.56
2022-08-12T06:52:46.436Z,101696.81
2022-08-12T06:57:03.757Z,101693.44
2022-08-12T07:01:07.428Z,101700.25
2022-08-12T07:05:09.469Z,101689.38
2022-08-12T07:09:14.537Z,101692.03
2022-08-12T07:14:11.199Z,101690.78
2022-08-12T07:18:11.908Z,101692.47
2022-08-12T07:22:13.520Z,101689.44
2022-08-12T07:26:18.665Z,101695.63
2022-08-12T07:30:20.189Z,101700.41
2022-08-12T07:34:23.323Z,101706.69
2022-08-12T07:38:30.472Z,101706.59
2022-08-12T07:42:32.087Z,101704.97
2022-08-12T07:46:37.538Z,101711.56
2022-08-12T07:50:39.242Z,101706.47
2022-08-12T07:54:40.739Z,101709.03
2022-08-12T07:58:46.906Z,101701.91
2022-08-12T08:02:49.319Z,101703.88
2022-08-12T08:06:50.900Z,101709.34
2022-08-12T08:11:17.327Z,101702.41
2022-08-12T08:15:20.147Z,101701.78
2022-08-12T08:19:26.800Z,101697.81
2022-08-12T08:23:56.461Z,101695.38
2022-08-12T08:28:02.040Z,101682.75
2022-08-12T08:32:07.662Z,101697.84
2022-08-12T08:36:16.164Z,101695.03
2022-08-12T08:40:51.528Z,101692.19
2022-08-12T08:44:57.964Z,101689.53
2022-08-12T08:49:01.330Z,101682.63
2022-08-12T08:53:02.818Z,101688.03
2022-08-12T08:57:07.927Z,101684.59
2022-08-12T09:01:09.348Z,101677.09
2022-08-12T09:05:15.693Z,101684.56
2022-08-12T09:09:18.533Z,101682.63
2022-08-12T09:14:09.928Z,101681.81
2022-08-12T09:17:57.689Z,101684.50
2022-08-12T09:22:00.695Z,101677.19
2022-08-12T09:30:41.191Z,101668.47
2022-08-12T09:34:45.882Z,101675.28
2022-08-12T09:38:58.769Z,101670.59
2022-08-12T09:43:21.524Z,101668.72
2022-08-12T09:47:29.608Z,101656.66
2022-08-12T09:51:37.284Z,101654.84
2022-08-12T09:56:06.633Z,101648.56
2022-08-12T10:00:19.798Z,101645.09
2022-08-12T10:04:30.801Z,101644.59
2022-08-12T10:08:33.677Z,101640.00
2022-08-12T10:13:07.122Z,101637.56
2022-08-12T10:17:10.237Z,101618.19
2022-08-12T10:21:16.415Z,101618.59
2022-08-12T10:26:35.247Z,101603.66
2022-08-12T10:30:03.289Z,101608.16
2022-08-12T10:34:26.613Z,101602.75
2022-08-12T10:38:37.677Z,101588.16
2022-08-12T10:43:01.010Z,101592.16
2022-08-12T10:47:26.430Z,101595.97
2022-08-12T10:52:03.214Z,101588.44
2022-08-12T10:55:55.473Z,101589.16
2022-08-12T11:00:30.911Z,101584.31
2022-08-12T11:04:41.405Z,101580.25
2022-08-12T11:08:47.045Z,101579.22
2022-08-12T11:12:58.643Z,101579.47
2022-08-12T11:17:34.790Z,101569.94
2022-08-12T11:21:56.769Z,101549.31
2022-08-12T11:25:57.627Z,101576.88
2022-08-12T11:30:05.904Z,101570.78
2022-08-12T11:34:51.042Z,101565.81
2022-08-12T11:38:30.424Z,101557.34
2022-08-12T11:42:32.360Z,101564.91
2022-08-12T11:46:38.441Z,101554.59
2022-08-12T11:50:43.496Z,101552.66
2022-08-12T11:54:50.942Z,101553.66
2022-08-12T12:01:58.187Z,101540.38
2022-08-12T12:03:17.332Z,101539.84
2022-08-12T12:07:18.967Z,101536.78
2022-08-12T12:11:21.706Z,101542.88
2022-08-12T12:15:24.879Z,101531.03
2022-08-12T12:19:28.403Z,101529.53
2022-08-12T12:23:47.386Z,101524.78
2022-08-12T12:28:04.394Z,101533.72
2022-08-12T12:32:11.831Z,101539.81
2022-08-12T12:36:20.697Z,101523.09
2022-08-12T12:40:30.065Z,101513.69
2022-08-12T12:44:42.177Z,101504.47
2022-08-12T12:48:52.293Z,101513.41
2022-08-12T12:52:54.283Z,101511.81
2022-08-12T12:56:55.785Z,101518.69
2022-08-12T13:01:04.474Z,101518.97
2022-08-12T13:05:11.842Z,101507.41
2022-08-12T13:09:15.477Z,101513.22
2022-08-12T13:14:10.440Z,101507.88
2022-08-12T13:18:02.035Z,101511.81
2022-08-12T13:22:20.345Z,101510.09
2022-08-12T13:26:23.021Z,101508.56
2022-08-12T13:30:26.613Z,101521.78
2022-08-12T13:34:34.373Z,101504.03
2022-08-12T13:38:39.651Z,101500.38
2022-08-12T13:42:41.344Z,101498.25
2022-08-12T13:46:58.138Z,101492.94
2022-08-12T13:51:00.719Z,101484.59
2022-08-12T13:55:06.520Z,101486.41
2022-08-12T13:59:08.802Z,101485.34
2022-08-12T14:03:12.414Z,101487.09
2022-08-12T14:07:13.999Z,101469.88
2022-08-12T14:11:15.561Z,101470.09
2022-08-12T14:15:17.075Z,101468.69
2022-08-12T14:19:22.720Z,101465.16
2022-08-12T14:24:05.415Z,101475.59
2022-08-12T14:28:03.457Z,101474.88
2022-08-12T14:32:07.798Z,101469.97
2022-08-12T14:36:23.314Z,101466.03
2022-08-12T14:40:30.184Z,101459.59
2022-08-12T14:44:58.086Z,101454.84
2022-08-12T14:48:55.066Z,101446.97
2022-08-12T14:57:24.171Z,101448.28
2022-08-12T15:01:44.600Z,101437.50
2022-08-12T15:06:05.435Z,101437.16
2022-08-12T15:10:09.265Z,101433.28
2022-08-12T15:14:11.703Z,101434.16
2022-08-12T15:18:22.714Z,101425.19
2022-08-12T15:22:37.299Z,101424.25
2022-08-12T15:26:42.343Z,101413.34
2022-08-12T15:30:43.977Z,101407.13
2022-08-12T15:34:46.660Z,101404.47
2022-08-12T15:38:51.340Z,101403.97
2022-08-12T15:42:54.438Z,101419.38
2022-08-12T15:46:55.889Z,101424.41
2022-08-12T15:50:57.618Z,101416.97
2022-08-12T15:55:06.398Z,101412.22
2022-08-12T15:59:15.393Z,101411.34
2022-08-12T16:03:28.603Z,101401.56
2022-08-12T16:07:49.405Z,101400.34
2022-08-12T16:11:52.088Z,101393.94
2022-08-12T16:16:02.988Z,101398.25
2022-08-12T16:20:06.219Z,101392.28
2022-08-12T16:24:08.261Z,101396.31
2022-08-12T16:28:12.493Z,101392.50
2022-08-12T16:32:19.369Z,101399.16
2022-08-12T16:36:20.868Z,101384.25
2022-08-12T16:40:22.362Z,101393.34
2022-08-12T16:44:26.641Z,101386.44
2022-08-12T16:48:38.689Z,101389.47
2022-08-12T16:52:41.326Z,101383.94
2022-08-12T16:56:51.126Z,101375.44
2022-08-12T17:01:03.153Z,101372.00
2022-08-12T17:05:14.921Z,101364.97
2022-08-12T17:09:19.018Z,101370.59
2022-08-12T17:13:21.047Z,101368.88
2022-08-12T17:17:38.998Z,101356.91
2022-08-12T17:22:01.204Z,101354.28
2022-08-12T17:26:10.921Z,101349.44
2022-08-12T17:30:13.978Z,101344.34
2022-08-12T17:34:38.258Z,101340.88
2022-08-12T17:38:40.565Z,101338.09
2022-08-12T17:42:43.454Z,101335.28
2022-08-12T17:46:45.468Z,101339.91
2022-08-12T17:50:56.310Z,101340.91
2022-08-12T17:54:59.381Z,101337.59
2022-08-12T17:59:02.363Z,101344.56
2022-08-12T18:03:04.516Z,101345.63
2022-08-12T18:07:08.514Z,101337.53
2022-08-12T18:12:03.353Z,101351.03
2022-08-12T18:16:04.101Z,101353.84
2022-08-12T18:20:15.513Z,101360.28
2022-08-12T18:24:22.319Z,101357.28
2022-08-12T18:28:29.019Z,101354.03
2022-08-12T18:32:58.752Z,101352.00
2022-08-12T18:36:59.552Z,101354.38
2022-08-12T18:41:33.488Z,101356.53
2022-08-12T18:45:47.344Z,101363.56
2022-08-12T18:49:58.869Z,101372.22
2022-08-12T18:54:06.008Z,101378.50
2022-08-12T18:58:10.324Z,101375.88
2022-08-12T19:02:22.147Z,101372.19
2022-08-12T19:06:27.180Z,101388.34
2022-08-12T19:10:33.680Z,101378.78
2022-08-12T19:14:42.132Z,101378.91
2022-08-12T19:18:44.675Z,101375.38
2022-08-12T19:22:59.653Z,101379.00
2022-08-12T19:27:10.296Z,101379.00
2022-08-12T19:31:45.291Z,101377.88
2022-08-12T19:36:07.794Z,101375.59
2022-08-12T19:40:32.992Z,101374.31
2022-08-12T19:44:37.754Z,101359.19
2022-08-12T19:48:43.314Z,101362.75
2022-08-12T19:52:44.845Z,101365.28
2022-08-12T19:56:51.429Z,101373.88
2022-08-12T20:00:54.877Z,101356.84
2022-08-12T20:06:03.410Z,101372.25
2022-08-12T20:09:18.313Z,101377.88
2022-08-12T20:13:26.910Z,101376.97
2022-08-12T20:17:36.299Z,101388.50
2022-08-12T20:21:51.869Z,101391.34
2022-08-12T20:26:01.866Z,101396.31
2022-08-12T20:30:07.290Z,101390.13
2022-08-12T20:34:08.895Z,101384.53
2022-08-12T20:38:26.175Z,101377.94
2022-08-12T20:42:31.940Z,101384.88
2022-08-12T20:46:33.840Z,101377.47
2022-08-12T20:50:36.524Z,101381.53
2022-08-12T20:54:42.918Z,101372.41
2022-08-12T20:58:50.897Z,101378.59
2022-08-12T21:02:52.394Z,101377.44
2022-08-12T21:06:57.955Z,101380.13
2022-08-12T21:11:06.327Z,101387.47
2022-08-12T21:15:22.878Z,101386.63
2022-08-12T21:19:53.047Z,101387.16
2022-08-12T21:23:49.596Z,101396.19
2022-08-12T21:27:58.791Z,101394.25
2022-08-12T21:32:40.165Z,101398.03
2022-08-12T21:36:34.107Z,101391.63
2022-08-12T21:40:36.944Z,101394.63
2022-08-12T21:45:48.320Z,101385.09
2022-08-12T21:49:04.781Z,101388.94
2022-08-12T21:53:10.300Z,101383.41
2022-08-12T21:57:15.766Z,101380.34
2022-08-12T22:01:22.961Z,101389.69
2022-08-12T22:05:42.863Z,101394.84
2022-08-12T22:09:46.175Z,101390.78
2022-08-12T22:14:02.030Z,101398.19
2022-08-12T22:18:09.562Z,101386.97
2022-08-12T22:22:12.317Z,101396.97
2022-08-12T22:26:28.980Z,101406.97
2022-08-12T22:30:55.342Z,101401.88
2022-08-12T22:35:22.223Z,101406.53
2022-08-12T22:39:30.724Z,101406.44
2022-08-12T22:44:00.385Z,101406.47
2022-08-12T22:48:03.269Z,101411.34
2022-08-12T22:52:08.575Z,101407.41
2022-08-12T22:56:10.219Z,101397.41
2022-08-12T23:00:27.443Z,101392.78
2022-08-12T23:04:34.579Z,101394.28
2022-08-12T23:08:37.509Z,101399.41
2022-08-12T23:13:00.309Z,101400.88
2022-08-12T23:17:07.520Z,101400.38
2022-08-12T23:21:24.504Z,101391.41
2022-08-12T23:25:32.710Z,101393.38
2022-08-12T23:30:17.402Z,101391.03
2022-08-12T23:34:13.970Z,101394.41
2022-08-12T23:38:30.225Z,101398.13
2022-08-12T23:42:32.794Z,101396.50
2022-08-12T23:46:34.272Z,101390.09
2022-08-12T23:50:35.751Z,101387.75
2022-08-12T23:54:44.375Z,101387.59
2022-08-12T23:58:57.553Z,101388.09
